Portada
METAR-TAF:

METAR-TAF

Aeroports :

Aeroport de Cherif Al Idrissi

Al Hoceima, Marroc

latitud: 35-11N, longitud: 003-51W, altitud: 27 m

Observació

L'informe es va fer fa 29 minuts, a les 05:00 UTC
Vent 2 kt del Nord
Temperatura 21°C
Humitat 83%
Pressió 1015 hPa
Visibilitat 10 km o més
Cel cobert a una alçada de 1300 ft

METAR: GMTA 140500Z 36002KT 9999 OVC013 21/18 Q1015 NOSIG

Hora: 06:29 (05:29 UTC)

Pronòstic

L'informe es va fer fa 6 hores i 29 minuts, a les 23:00 UTC
Pronòstic vàlid del 14 a les 00 UTC al 15 a les 06 UTC
Vent 2 kt amb direcció variable
Visibilitat 10 km o més
sense núvols per sota de 1500 mi sense presència de cumulonimbus.
Probabilitat 30%
l' 14 a les 02 UTC al 14 a les 08 UTC
Visibilitat: 2000 m
Cel ennuvolat a una alçada de 1000 ft
boirina

TAF: GMTA 132300Z 1400/1506 VRB02KT CAVOK PROB30 1402/1408 2000 BR BKN010

Observacions i pronòstics meteorològics de més de 4000 aeroports (METAR i TAF).

Les estacions disponibles són els punts grocs i vermells al mapa.

Posi el ratolí al punt desitjat per veure el nom de l'estació.

Feu clic per veure les observacions i els pronòstics meteorològics.

Per canviar el mapa: feu clic els botons verds amb una creu de color negre per apropar; al botó verd amb un guió per allunyar la imatge; o en les fletxes verdes per a mapes adjacents.


METAR-TAF: